CheckWX is a tool to help pilots better visualize weather data.  It is not intended as a substitute for an official pre-flight weather briefing.

16:07:50 UTC

KJVL METAR
Southern Wisconsin Regional Airport
Janesville, Wisconsin, USA
Current

23 mins ago

KJVL 261545Z 00000KT 10SM SCT055 BKN180 21/11 A3006
Observed
May-26 @ 15:45 UTC
Visibility
10 SM
Flight Rules
VFR
Cloud Levels
  • Scattered at 5,500' AGL
  • Broken at 18,000' AGL
Temperature
21°C / 70°F
Dewpoint
11°C / 52°F
Humidity
53%
Altimeter
30.06" Hg
Pressure
1017.92 hPa
Previous

1 hour ago

KJVL 261445Z COR 05010KT 10SM SCT060 BKN150 18/11 A3004
Observed
May-26 @ 14:45 UTC
Wind
  • 050° at 10 KTS
Visibility
10 SM
Flight Rules
VFR
Cloud Levels
  • Scattered at 6,000' AGL
  • Broken at 15,000' AGL
Temperature
18°C / 64°F
Dewpoint
11°C / 52°F
Humidity
64%
Altimeter
30.04" Hg
Pressure
1017.32 hPa
Previous

2 hours ago

KJVL 261345Z 04010KT 10SM SCT050 BKN060 OVC085 19/11 A3004
Observed
May-26 @ 13:45 UTC
Wind
  • 040° at 10 KTS
Visibility
10 SM
Flight Rules
VFR
Cloud Levels
  • Scattered at 5,000' AGL
  • Broken at 6,000' AGL
  • Overcast at 8,500' AGL
Temperature
19°C / 66°F
Dewpoint
11°C / 52°F
Humidity
60%
Altimeter
30.04" Hg
Pressure
1017.32 hPa